Time;durP1;ratioP1;P1;durP2;ratioP2;P2;SDS_P1;SDS_P2;PMS_P1;PMS_P2;Temp;Humidity;BMP_temperature;BMP_pressure;BME280_temperature;BME280_humidity;BME280_pressure;Samples;Min_cycle;Max_cycle;Signal;HPM_P1;HPM_P2
2023/05/01 00:00:41;;;;;;;7.75;4.55;;;9.50;99.90;;;;;;5053986;28;20045;-78
2023/05/01 00:03:06;;;;;;;6.07;4.45;;;9.40;99.90;;;;;;5053958;28;20041;-77
2023/05/01 00:05:32;;;;;;;5.80;4.70;;;9.40;99.90;;;;;;5054003;28;20045;-78
2023/05/01 00:07:58;;;;;;;6.38;4.40;;;9.40;99.90;;;;;;5054156;28;20072;-78
2023/05/01 00:10:23;;;;;;;8.48;4.85;;;9.40;99.90;;;;;;5053033;28;20057;-77
2023/05/01 00:12:49;;;;;;;6.78;4.43;;;9.40;99.90;;;;;;5053604;28;20049;-75
2023/05/01 00:15:15;;;;;;;5.03;4.20;;;9.30;99.90;;;;;;5053629;28;20041;-78
2023/05/01 00:17:41;;;;;;;5.70;4.75;;;9.30;99.90;;;;;;5053598;28;20123;-77
2023/05/01 00:20:07;;;;;;;10.20;5.43;;;9.30;99.90;;;;;;5052829;28;20474;-77
2023/05/01 00:22:33;;;;;;;6.32;4.88;;;9.30;99.90;;;;;;5052529;28;20104;-78
2023/05/01 00:24:59;;;;;;;7.47;5.03;;;9.30;99.90;;;;;;5053458;28;20118;-75
2023/05/01 00:27:24;;;;;;;5.88;4.72;;;9.30;99.90;;;;;;5052931;28;20109;-77
2023/05/01 00:29:50;;;;;;;6.60;5.25;;;9.30;99.90;;;;;;5052086;28;20036;-77
2023/05/01 00:32:15;;;;;;;4.53;4.00;;;9.20;99.90;;;;;;5053304;28;20052;-78
2023/05/01 00:34:41;;;;;;;6.35;4.93;;;9.20;99.90;;;;;;5053113;28;20127;-78
2023/05/01 00:37:07;;;;;;;8.88;4.85;;;9.20;99.90;;;;;;5053579;28;20053;-78
2023/05/01 00:39:33;;;;;;;6.10;4.75;;;9.20;99.90;;;;;;5053650;28;20124;-78
2023/05/01 00:41:58;;;;;;;8.50;5.05;;;9.10;99.90;;;;;;5053072;28;20549;-77
2023/05/01 00:44:24;;;;;;;4.95;4.30;;;9.10;99.90;;;;;;5052585;28;20057;-77
2023/05/01 00:46:50;;;;;;;6.28;5.00;;;9.10;99.90;;;;;;5053009;28;20048;-76
2023/05/01 00:49:16;;;;;;;9.52;4.82;;;9.10;99.90;;;;;;5053052;28;20136;-77
2023/05/01 00:51:44;;;;;;;8.00;5.13;;;9.10;99.90;;;;;;5053200;28;20041;-78
2023/05/01 00:54:10;;;;;;;7.28;4.60;;;9.00;99.90;;;;;;5052893;28;20060;-76
2023/05/01 00:56:36;;;;;;;9.65;5.22;;;9.00;99.90;;;;;;5052338;28;20049;-78
2023/05/01 00:59:02;;;;;;;7.35;4.43;;;9.00;99.90;;;;;;5052867;28;20076;-77
2023/05/01 01:01:28;;;;;;;9.77;6.32;;;8.90;99.90;;;;;;5052714;28;20076;-78
2023/05/01 01:03:54;;;;;;;6.10;5.05;;;8.90;99.90;;;;;;5052939;28;20113;-78
2023/05/01 01:06:56;;;;;;;6.55;5.55;;;8.80;99.90;;;;;;5051810;28;20510;-77
2023/05/01 01:09:45;;;;;;;7.85;5.20;;;8.80;99.90;;;;;;5051850;28;20059;-77
2023/05/01 01:12:31;;;;;;;6.18;5.13;;;8.70;99.90;;;;;;5052375;28;20051;-78
2023/05/01 01:15:13;;;;;;;6.03;5.07;;;8.60;99.90;;;;;;5052672;28;20041;-78
2023/05/01 01:17:52;;;;;;;7.35;5.07;;;8.60;99.90;;;;;;5052413;28;20440;-76
2023/05/01 01:20:59;;;;;;;7.13;5.43;;;8.50;99.90;;;;;;5051438;28;20049;-78
2023/05/01 01:23:55;;;;;;;6.13;5.28;;;8.50;99.90;;;;;;5047771;28;20061;-79
2023/05/01 01:26:27;;;;;;;9.77;5.93;;;8.50;99.90;;;;;;5051709;28;20136;-78
2023/05/01 01:29:20;;;;;;;6.47;5.40;;;8.50;99.90;;;;;;5052965;28;20127;-78
2023/05/01 01:32:09;;;;;;;5.68;4.57;;;8.50;99.90;;;;;;5052410;28;20037;-79
2023/05/01 01:34:56;;;;;;;6.53;4.88;;;8.40;99.90;;;;;;5052095;28;20049;-78
2023/05/01 01:37:29;;;;;;;8.85;5.60;;;8.40;99.90;;;;;;5052374;28;20096;-78
2023/05/01 01:40:06;;;;;;;6.80;5.53;;;8.40;99.90;;;;;;5052798;28;20466;-79
2023/05/01 01:42:47;;;;;;;6.78;5.25;;;8.30;99.90;;;;;;5052707;28;20090;-79
2023/05/01 01:45:22;;;;;;;11.02;5.90;;;8.30;99.90;;;;;;5052254;28;20049;-78
2023/05/01 01:47:50;;;;;;;7.90;5.25;;;8.20;99.90;;;;;;5052343;28;20067;-78
2023/05/01 01:50:18;;;;;;;8.52;5.30;;;8.10;99.90;;;;;;5052795;28;20049;-79
2023/05/01 01:52:48;;;;;;;10.23;6.03;;;8.10;99.90;;;;;;5052105;28;20049;-78
2023/05/01 01:55:15;;;;;;;8.98;5.90;;;8.00;99.90;;;;;;5052816;28;20048;-77
2023/05/01 01:57:43;;;;;;;6.28;5.25;;;8.00;99.90;;;;;;5038921;28;20056;-79
2023/05/01 02:00:11;;;;;;;7.78;5.55;;;7.90;99.90;;;;;;5056067;28;20079;-77
2023/05/01 02:02:38;;;;;;;7.63;5.97;;;7.90;99.90;;;;;;5056126;28;20041;-78
2023/05/01 02:05:10;;;;;;;9.65;5.55;;;7.90;99.90;;;;;;5056021;28;20037;-77
2023/05/01 02:07:39;;;;;;;8.52;5.82;;;7.90;99.90;;;;;;5056605;28;20067;-77
2023/05/01 02:10:08;;;;;;;7.03;5.55;;;7.90;99.90;;;;;;5055983;28;20049;-78
2023/05/01 02:12:35;;;;;;;9.55;6.82;;;7.90;99.90;;;;;;5056308;28;20127;-78
2023/05/01 02:15:02;;;;;;;7.95;5.45;;;7.90;99.90;;;;;;5055813;28;20401;-78
2023/05/01 02:17:28;;;;;;;9.55;5.93;;;7.90;99.90;;;;;;5055820;28;20057;-79
2023/05/01 02:19:55;;;;;;;9.02;5.03;;;7.90;99.90;;;;;;5055014;28;20057;-78
2023/05/01 02:22:24;;;;;;;7.22;5.50;;;7.90;99.90;;;;;;5055521;28;20119;-78
2023/05/01 02:24:51;;;;;;;10.88;5.68;;;8.00;99.90;;;;;;5055925;28;20079;-77
2023/05/01 02:27:27;;;;;;;11.60;6.18;;;8.00;99.90;;;;;;5055743;28;20059;-79
2023/05/01 02:29:52;;;;;;;8.60;5.97;;;7.90;99.90;;;;;;5055778;28;20049;-78
2023/05/01 02:32:18;;;;;;;7.88;5.72;;;7.80;99.90;;;;;;5055848;28;20049;-79
2023/05/01 02:34:44;;;;;;;6.97;5.53;;;7.80;99.90;;;;;;5055848;28;20045;-78
2023/05/01 02:37:11;;;;;;;8.15;6.32;;;7.70;99.90;;;;;;5054664;28;20044;-78
2023/05/01 02:39:38;;;;;;;7.53;5.40;;;7.60;99.90;;;;;;5055953;28;20048;-78
2023/05/01 02:42:08;;;;;;;8.70;6.10;;;7.50;99.90;;;;;;5055386;28;20052;-78
2023/05/01 02:44:50;;;;;;;7.25;5.57;;;7.50;99.90;;;;;;5054274;28;20047;-78
2023/05/01 02:47:20;;;;;;;8.17;6.67;;;7.50;99.90;;;;;;5055417;28;20152;-79
2023/05/01 02:49:48;;;;;;;9.02;6.85;;;7.50;99.90;;;;;;5055343;28;20283;-79
2023/05/01 02:52:19;;;;;;;7.18;5.20;;;7.40;99.90;;;;;;5055154;28;20041;-78
2023/05/01 02:54:45;;;;;;;11.43;6.97;;;7.40;99.90;;;;;;5055126;28;20049;-79
2023/05/01 02:57:11;;;;;;;11.20;6.95;;;7.40;99.90;;;;;;5055132;28;20075;-75
2023/05/01 02:59:37;;;;;;;10.25;6.68;;;7.40;99.90;;;;;;5054707;28;20053;-79
2023/05/01 03:02:03;;;;;;;11.23;7.03;;;7.40;99.90;;;;;;5037279;28;20080;-77
2023/05/01 03:04:28;;;;;;;8.85;5.88;;;7.30;99.90;;;;;;5055293;28;20059;-78
2023/05/01 03:06:54;;;;;;;9.93;6.75;;;7.30;99.90;;;;;;5055146;28;20446;-76
2023/05/01 03:09:21;;;;;;;7.25;6.20;;;7.30;99.90;;;;;;5055552;28;20407;-77
2023/05/01 03:11:47;;;;;;;8.63;6.78;;;7.40;99.90;;;;;;5055796;28;20049;-77
2023/05/01 03:14:12;;;;;;;9.77;6.00;;;7.30;99.90;;;;;;5053809;28;20095;-75
2023/05/01 03:16:38;;;;;;;9.00;6.20;;;7.30;99.90;;;;;;5054800;28;20048;-79
2023/05/01 03:19:05;;;;;;;9.57;5.93;;;7.30;99.90;;;;;;5052995;28;20474;-78
2023/05/01 03:21:31;;;;;;;8.75;6.95;;;7.30;99.90;;;;;;5053852;28;20041;-78
2023/05/01 03:23:57;;;;;;;11.05;6.70;;;7.30;99.90;;;;;;5054855;28;20052;-79
2023/05/01 03:26:24;;;;;;;8.75;6.78;;;7.30;99.90;;;;;;5054769;28;20512;-79
2023/05/01 03:28:50;;;;;;;8.52;6.22;;;7.30;99.90;;;;;;5053526;28;20500;-78
2023/05/01 03:31:16;;;;;;;9.18;6.32;;;7.30;99.90;;;;;;5052869;28;20136;-78
2023/05/01 03:33:41;;;;;;;9.77;6.15;;;7.40;99.90;;;;;;5053144;28;20049;-79
2023/05/01 03:36:10;;;;;;;11.50;6.43;;;7.40;99.90;;;;;;5054489;28;20469;-79
2023/05/01 03:38:36;;;;;;;9.43;6.35;;;7.30;99.90;;;;;;5054595;28;20133;-78
2023/05/01 03:41:04;;;;;;;9.70;6.72;;;7.40;99.90;;;;;;5054623;28;20080;-78
2023/05/01 03:43:30;;;;;;;9.55;6.40;;;7.40;99.90;;;;;;5054613;28;20053;-78
2023/05/01 03:45:56;;;;;;;8.40;6.57;;;7.40;99.90;;;;;;5054178;28;20045;-79
2023/05/01 03:48:23;;;;;;;8.80;7.18;;;7.40;99.90;;;;;;5054361;28;20053;-79
2023/05/01 03:50:49;;;;;;;9.68;7.20;;;7.40;99.90;;;;;;5053654;28;20049;-78
2023/05/01 03:53:15;;;;;;;8.88;5.70;;;7.40;99.90;;;;;;5053993;28;20047;-78
2023/05/01 03:55:41;;;;;;;7.57;6.72;;;7.30;99.90;;;;;;5054069;28;20041;-79
2023/05/01 03:58:07;;;;;;;7.47;5.97;;;7.40;99.90;;;;;;5054425;28;20098;-78
2023/05/01 04:00:33;;;;;;;7.53;6.10;;;7.40;99.90;;;;;;5053932;28;20124;-76
2023/05/01 04:02:59;;;;;;;7.82;6.38;;;7.30;99.90;;;;;;5052669;28;20048;-77
2023/05/01 04:05:24;;;;;;;10.70;7.13;;;7.40;99.90;;;;;;5052806;28;20047;-78
2023/05/01 04:07:50;;;;;;;9.35;6.57;;;7.40;99.90;;;;;;5053856;28;20120;-78
2023/05/01 04:10:16;;;;;;;7.70;5.82;;;7.50;99.90;;;;;;5053707;28;20515;-76
2023/05/01 04:12:42;;;;;;;8.43;5.80;;;7.50;99.90;;;;;;5053650;28;20576;-78
2023/05/01 04:15:08;;;;;;;10.15;6.75;;;7.50;99.90;;;;;;5053513;28;20110;-75
2023/05/01 04:17:38;;;;;;;6.80;5.40;;;7.50;99.90;;;;;;5053805;28;20140;-78
2023/05/01 04:20:05;;;;;;;9.13;6.50;;;6.30;99.90;;;;;;5053122;28;20359;-77
2023/05/01 04:22:31;;;;;;;12.77;7.38;;;7.20;99.90;;;;;;5053345;28;20474;-78
2023/05/01 04:24:57;;;;;;;9.95;6.63;;;7.10;99.90;;;;;;5052899;28;20057;-79
2023/05/01 04:27:23;;;;;;;11.27;6.88;;;7.00;99.90;;;;;;5052266;28;20049;-79
2023/05/01 04:29:49;;;;;;;10.23;6.82;;;6.90;99.90;;;;;;5053356;28;20057;-79
2023/05/01 04:32:16;;;;;;;10.35;7.00;;;7.00;99.90;;;;;;5053231;28;20048;-79
2023/05/01 04:34:43;;;;;;;9.27;7.05;;;6.90;99.90;;;;;;5053227;28;20497;-78
2023/05/01 04:37:09;;;;;;;9.15;6.38;;;6.90;99.90;;;;;;5052961;28;20049;-79
2023/05/01 04:39:35;;;;;;;8.10;6.75;;;7.00;99.90;;;;;;5053267;28;20044;-78
2023/05/01 04:42:04;;;;;;;11.13;7.00;;;7.00;99.90;;;;;;5053130;28;20052;-79
2023/05/01 04:44:32;;;;;;;10.10;6.97;;;7.00;99.90;;;;;;5053150;28;20437;-79
2023/05/01 04:47:00;;;;;;;9.85;7.78;;;7.10;99.90;;;;;;5053094;28;20045;-79
2023/05/01 04:49:26;;;;;;;9.68;6.50;;;7.10;99.90;;;;;;5052961;28;20045;-78
2023/05/01 04:51:51;;;;;;;9.65;7.22;;;7.10;99.90;;;;;;5051756;28;20045;-78
2023/05/01 04:54:17;;;;;;;7.65;6.70;;;7.20;99.90;;;;;;5053065;28;20051;-78
2023/05/01 04:56:43;;;;;;;10.65;6.90;;;7.20;99.90;;;;;;5051823;28;20474;-79
2023/05/01 04:59:08;;;;;;;11.48;7.45;;;7.30;99.90;;;;;;5052782;28;20049;-79
2023/05/01 05:01:34;;;;;;;8.65;6.53;;;7.30;99.90;;;;;;5052753;28;20087;-76
2023/05/01 05:04:00;;;;;;;8.88;6.68;;;7.40;99.90;;;;;;5051424;28;20484;-79
2023/05/01 05:06:25;;;;;;;10.38;7.47;;;7.50;99.90;;;;;;5051265;28;20178;-78
2023/05/01 05:08:51;;;;;;;10.32;7.25;;;7.50;99.90;;;;;;5053053;28;20475;-78
2023/05/01 05:11:17;;;;;;;10.55;6.75;;;7.60;99.90;;;;;;5052332;28;20146;-77
2023/05/01 05:13:44;;;;;;;8.25;6.32;;;7.70;99.90;;;;;;5051170;28;20045;-79
2023/05/01 05:16:10;;;;;;;13.00;8.18;;;7.70;99.90;;;;;;5052270;28;20045;-79
2023/05/01 05:18:36;;;;;;;9.13;6.53;;;7.80;99.90;;;;;;5051749;28;20492;-77
2023/05/01 05:21:06;;;;;;;10.07;7.70;;;7.80;99.90;;;;;;5051753;28;20120;-78
2023/05/01 05:23:32;;;;;;;11.30;7.57;;;7.90;99.90;;;;;;5052216;28;20055;-79
2023/05/01 05:26:00;;;;;;;10.82;6.95;;;7.90;99.90;;;;;;5052206;28;20120;-79
2023/05/01 05:28:29;;;;;;;11.80;7.95;;;8.00;99.90;;;;;;5052144;28;20049;-78
2023/05/01 05:30:56;;;;;;;8.77;7.15;;;8.10;99.90;;;;;;5052038;28;20128;-79
2023/05/01 05:33:23;;;;;;;9.55;7.47;;;8.20;99.90;;;;;;5051900;28;20555;-78
2023/05/01 05:35:50;;;;;;;9.05;6.93;;;8.20;99.90;;;;;;5052251;28;20063;-78
2023/05/01 05:38:15;;;;;;;8.55;7.63;;;8.30;99.90;;;;;;5050920;28;20056;-77
2023/05/01 05:40:41;;;;;;;10.23;7.40;;;8.30;99.90;;;;;;5052570;28;20045;-77
2023/05/01 05:43:07;;;;;;;12.10;7.57;;;8.40;99.90;;;;;;5052274;28;20396;-78
2023/05/01 05:45:33;;;;;;;9.48;8.35;;;8.40;99.90;;;;;;5051971;28;20044;-78
2023/05/01 05:47:59;;;;;;;9.60;6.97;;;8.50;99.90;;;;;;5050679;28;20053;-76
2023/05/01 05:50:25;;;;;;;12.93;8.00;;;8.60;99.90;;;;;;5052023;28;20048;-78
2023/05/01 05:52:51;;;;;;;11.60;7.82;;;8.70;99.90;;;;;;5051861;28;20470;-78
2023/05/01 05:55:16;;;;;;;9.70;7.80;;;8.70;99.90;;;;;;5052814;28;20099;-78
2023/05/01 05:57:42;;;;;;;10.20;7.72;;;8.80;99.90;;;;;;5052735;28;20509;-79
2023/05/01 06:00:09;;;;;;;11.27;8.57;;;8.90;99.90;;;;;;5051268;28;20049;-79
2023/05/01 06:02:35;;;;;;;12.45;8.75;;;9.00;99.90;;;;;;5052347;28;20079;-78
2023/05/01 06:05:01;;;;;;;15.90;8.85;;;9.10;99.90;;;;;;5052601;28;20045;-78
2023/05/01 06:07:27;;;;;;;10.48;7.78;;;9.20;99.90;;;;;;5052738;28;20115;-78
2023/05/01 06:09:53;;;;;;;12.38;7.93;;;9.30;99.90;;;;;;5052229;28;20045;-78
2023/05/01 06:12:19;;;;;;;11.77;8.48;;;9.40;99.90;;;;;;5050888;28;20056;-78
2023/05/01 06:14:45;;;;;;;12.52;8.07;;;9.50;99.90;;;;;;5054140;28;20489;-78
2023/05/01 06:17:11;;;;;;;12.38;8.23;;;9.50;99.90;;;;;;5052013;28;20106;-77
2023/05/01 06:19:36;;;;;;;10.48;7.30;;;9.70;99.90;;;;;;5051923;28;20053;-76
2023/05/01 06:22:02;;;;;;;13.55;8.73;;;9.70;99.90;;;;;;5050968;28;20053;-80
2023/05/01 06:24:28;;;;;;;13.88;7.63;;;9.90;99.90;;;;;;5050914;28;20045;-79
2023/05/01 06:26:53;;;;;;;9.82;7.60;;;10.00;99.90;;;;;;5052590;28;20045;-79
2023/05/01 06:29:19;;;;;;;12.63;8.32;;;10.10;99.90;;;;;;5051814;28;20397;-78
2023/05/01 06:31:45;;;;;;;9.90;8.10;;;10.20;99.90;;;;;;5051678;28;20088;-76
2023/05/01 06:34:11;;;;;;;11.77;7.90;;;10.30;99.90;;;;;;5051796;28;20055;-76
2023/05/01 06:36:37;;;;;;;13.63;8.23;;;10.40;99.90;;;;;;5052155;28;20159;-76
2023/05/01 06:39:03;;;;;;;11.00;8.05;;;10.50;99.90;;;;;;5050511;28;20044;-78
2023/05/01 06:41:29;;;;;;;12.85;7.60;;;10.70;99.90;;;;;;5051735;28;20132;-78
2023/05/01 06:43:55;;;;;;;10.10;7.13;;;10.80;99.90;;;;;;5054907;28;20137;-79
2023/05/01 06:46:20;;;;;;;10.07;7.70;;;11.00;99.90;;;;;;5055136;28;20545;-77
2023/05/01 06:48:46;;;;;;;10.65;7.28;;;11.20;99.90;;;;;;5055311;28;20493;-79
2023/05/01 06:51:15;;;;;;;10.27;7.72;;;11.50;99.90;;;;;;5055266;28;20501;-79
2023/05/01 06:53:40;;;;;;;11.73;8.40;;;11.90;99.90;;;;;;5055049;28;20045;-79
2023/05/01 06:56:07;;;;;;;9.80;6.63;;;12.10;99.90;;;;;;5055114;28;20555;-78
2023/05/01 06:58:33;;;;;;;8.50;6.80;;;12.50;99.90;;;;;;5054909;28;20052;-80
2023/05/01 07:00:58;;;;;;;8.73;6.22;;;12.90;99.90;;;;;;5055028;28;20054;-78
2023/05/01 07:03:26;;;;;;;11.60;7.28;;;13.30;99.90;;;;;;5054753;28;20182;-77
2023/05/01 07:05:53;;;;;;;8.32;6.55;;;13.70;99.90;;;;;;5054844;28;20408;-79
2023/05/01 07:08:18;;;;;;;10.30;7.32;;;14.10;99.90;;;;;;5054844;28;20049;-72
2023/05/01 07:10:44;;;;;;;9.15;6.70;;;14.60;99.90;;;;;;5054723;28;20052;-72
2023/05/01 07:13:10;;;;;;;12.63;6.18;;;15.10;99.90;;;;;;5053405;28;20539;-72
2023/05/01 07:15:36;;;;;;;9.82;5.43;;;15.70;99.90;;;;;;5054549;28;20119;-72
2023/05/01 07:18:04;;;;;;;10.43;6.00;;;16.00;99.90;;;;;;5054653;28;20137;-72
2023/05/01 07:20:31;;;;;;;8.70;5.18;;;16.60;99.90;;;;;;5054207;28;20489;-72
2023/05/01 07:22:57;;;;;;;9.50;5.95;;;17.10;99.90;;;;;;5053490;28;20049;-77
2023/05/01 07:25:23;;;;;;;8.80;5.82;;;17.80;99.90;;;;;;5054775;28;20056;-78
2023/05/01 07:27:49;;;;;;;8.23;5.90;;;18.00;99.90;;;;;;5054445;28;20057;-77
2023/05/01 07:30:15;;;;;;;8.88;5.50;;;17.80;99.30;;;;;;5036962;28;20055;-80
2023/05/01 07:32:41;;;;;;;9.57;6.13;;;18.10;99.40;;;;;;5054831;28;20041;-79
2023/05/01 07:35:07;;;;;;;6.10;5.50;;;18.30;97.70;;;;;;5054474;28;20398;-81
2023/05/01 07:37:33;;;;;;;9.55;6.18;;;18.30;97.40;;;;;;5054460;28;20080;-80
2023/05/01 07:39:58;;;;;;;8.40;5.70;;;18.50;97.70;;;;;;5054016;28;20064;-79
2023/05/01 07:42:26;;;;;;;6.93;5.13;;;18.80;96.50;;;;;;5052836;28;20044;-78
2023/05/01 07:44:52;;;;;;;7.95;5.30;;;19.10;95.60;;;;;;5054728;28;20182;-80
2023/05/01 07:47:18;;;;;;;7.60;5.55;;;19.30;95.20;;;;;;5054139;28;20497;-80
2023/05/01 07:49:43;;;;;;;8.98;5.63;;;19.50;94.40;;;;;;5054083;28;20053;-79
2023/05/01 07:52:09;;;;;;;7.28;5.38;;;19.40;93.80;;;;;;5053982;28;20055;-78
2023/05/01 07:54:35;;;;;;;8.15;5.50;;;19.40;93.90;;;;;;5054055;28;20041;-79
2023/05/01 07:57:01;;;;;;;7.90;5.50;;;19.40;93.50;;;;;;5054002;28;20044;-78
2023/05/01 07:59:27;;;;;;;12.13;5.68;;;19.40;93.60;;;;;;5053996;28;20049;-79
2023/05/01 08:01:53;;;;;;;9.90;5.72;;;19.50;93.60;;;;;;5054290;28;20516;-80
2023/05/01 08:04:21;;;;;;;8.35;6.00;;;19.60;93.70;;;;;;5054175;28;20053;-77
2023/05/01 08:06:48;;;;;;;8.07;5.65;;;19.80;93.70;;;;;;5053449;28;20087;-79
2023/05/01 08:09:14;;;;;;;8.88;5.47;;;19.80;93.50;;;;;;5053761;28;20047;-78
2023/05/01 08:11:40;;;;;;;9.68;5.45;;;19.80;93.30;;;;;;5053914;28;20045;-78
2023/05/01 08:14:05;;;;;;;7.53;5.78;;;19.90;93.10;;;;;;5053660;28;20488;-78
2023/05/01 08:16:33;;;;;;;8.85;5.80;;;20.20;93.20;;;;;;5053498;28;20442;-77
2023/05/01 08:18:59;;;;;;;9.63;6.22;;;20.40;93.10;;;;;;5052160;28;20091;-77
2023/05/01 08:21:25;;;;;;;7.78;5.07;;;20.30;93.20;;;;;;5053935;28;20089;-80
2023/05/01 08:23:52;;;;;;;11.18;5.97;;;20.50;93.40;;;;;;5052701;28;20049;-78
2023/05/01 08:26:18;;;;;;;6.88;5.53;;;20.70;92.80;;;;;;5053385;28;20056;-79
2023/05/01 08:28:43;;;;;;;7.78;5.35;;;20.80;92.40;;;;;;5053561;28;20045;-76
2023/05/01 08:31:09;;;;;;;7.35;5.50;;;21.00;92.20;;;;;;5053453;28;20430;-77
2023/05/01 08:33:35;;;;;;;6.78;5.88;;;20.70;92.00;;;;;;5053064;28;20049;-80
2023/05/01 08:36:01;;;;;;;8.65;5.93;;;21.00;92.10;;;;;;5053185;28;20053;-79
2023/05/01 08:38:26;;;;;;;7.72;5.40;;;21.20;91.70;;;;;;5053254;28;20103;-79
2023/05/01 08:40:53;;;;;;;8.15;5.45;;;21.40;91.50;;;;;;5052958;28;20044;-78
2023/05/01 08:43:20;;;;;;;10.85;5.80;;;21.40;91.00;;;;;;5052954;28;20042;-79
2023/05/01 08:45:47;;;;;;;8.45;5.88;;;21.40;90.70;;;;;;5052042;28;20074;-80
2023/05/01 08:48:16;;;;;;;7.57;5.60;;;21.40;90.70;;;;;;5053384;28;20067;-82
2023/05/01 08:50:44;;;;;;;7.90;5.95;;;21.10;90.70;;;;;;5052919;28;20187;-80
2023/05/01 08:53:12;;;;;;;7.90;5.47;;;20.60;90.10;;;;;;5053179;28;20048;-78
2023/05/01 08:55:39;;;;;;;6.65;5.40;;;20.80;91.70;;;;;;5052767;28;20052;-79
2023/05/01 08:58:08;;;;;;;8.57;5.20;;;21.30;91.30;;;;;;5052599;28;20045;-78
2023/05/01 09:00:35;;;;;;;6.95;5.53;;;21.80;90.30;;;;;;5052864;28;20041;-77
2023/05/01 09:03:04;;;;;;;9.15;5.95;;;22.00;84.20;;;;;;5051592;28;20139;-78
2023/05/01 09:05:31;;;;;;;12.15;5.88;;;21.50;87.10;;;;;;5052304;28;20121;-76
2023/05/01 09:07:58;;;;;;;12.65;6.13;;;21.60;88.50;;;;;;5052867;28;20104;-77
2023/05/01 09:10:24;;;;;;;11.07;6.28;;;21.20;89.60;;;;;;5051400;28;20041;-76
2023/05/01 09:12:58;;;;;;;6.20;5.60;;;21.10;90.10;;;;;;5052861;28;20048;-79
2023/05/01 09:15:28;;;;;;;8.50;5.35;;;20.80;87.00;;;;;;5052746;28;20119;-77
2023/05/01 09:17:55;;;;;;;9.15;5.05;;;21.30;89.20;;;;;;5052347;28;20057;-78
2023/05/01 09:20:22;;;;;;;7.00;4.35;;;21.30;89.10;;;;;;5052747;28;20049;-78
2023/05/01 09:22:48;;;;;;;6.55;3.70;;;21.70;86.70;;;;;;5052804;28;20079;-78
2023/05/01 09:25:14;;;;;;;5.70;3.78;;;22.50;85.30;;;;;;5052753;28;20052;-77
2023/05/01 09:27:39;;;;;;;8.27;4.43;;;23.10;84.10;;;;;;5050769;28;20394;-76
2023/05/01 09:30:06;;;;;;;7.43;4.10;;;23.50;82.60;;;;;;5052152;28;20198;-78
2023/05/01 09:32:32;;;;;;;6.35;4.07;;;23.50;81.10;;;;;;5034467;28;20052;-77
2023/05/01 09:35:12;;;;;;;5.40;3.58;;;23.80;80.60;;;;;;5052446;28;20040;-78
2023/05/01 09:37:39;;;;;;;5.88;3.80;;;24.10;72.10;;;;;;5052372;28;20202;-76
2023/05/01 09:40:06;;;;;;;4.68;3.33;;;23.90;78.60;;;;;;5051107;28;20421;-77
2023/05/01 09:42:33;;;;;;;5.55;3.53;;;23.70;79.20;;;;;;5052291;28;20076;-76
2023/05/01 09:45:03;;;;;;;8.98;3.83;;;23.30;78.30;;;;;;5051971;28;20049;-78
2023/05/01 09:47:29;;;;;;;4.20;3.08;;;23.20;75.30;;;;;;5052617;28;20044;-77
2023/05/01 09:49:56;;;;;;;4.47;2.88;;;22.70;73.90;;;;;;5052104;28;20468;-77
2023/05/01 09:52:34;;;;;;;6.03;3.28;;;22.20;74.20;;;;;;5051917;28;20041;-78
2023/05/01 09:55:16;;;;;;;5.88;2.80;;;22.00;71.20;;;;;;5051985;28;20478;-77
2023/05/01 09:57:44;;;;;;;6.30;2.42;;;21.80;69.40;;;;;;5052371;28;20094;-77
2023/05/01 10:00:12;;;;;;;5.93;2.65;;;21.40;71.80;;;;;;5051918;28;20057;-77
2023/05/01 10:02:40;;;;;;;5.68;2.00;;;21.90;74.60;;;;;;5052306;28;20136;-77
2023/05/01 10:05:08;;;;;;;3.35;2.05;;;21.60;70.70;;;;;;5051842;28;20052;-76
2023/05/01 10:07:33;;;;;;;3.33;2.28;;;21.80;72.70;;;;;;5052173;28;20049;-76
2023/05/01 10:10:20;;;;;;;4.65;2.70;;;21.30;64.90;;;;;;5051957;28;20048;-77
2023/05/01 10:12:47;;;;;;;6.20;3.55;;;21.40;67.00;;;;;;5034077;28;20041;-77
2023/05/01 10:15:13;;;;;;;3.70;1.98;;;21.50;72.60;;;;;;5050957;28;20056;-77
2023/05/01 10:17:42;;;;;;;8.60;3.80;;;21.60;71.50;;;;;;5054411;28;20485;-77
2023/05/01 10:20:11;;;;;;;5.13;2.83;;;21.20;68.90;;;;;;5056270;28;20045;-77
2023/05/01 10:22:38;;;;;;;3.30;2.22;;;21.40;72.20;;;;;;5056024;28;20049;-77
2023/05/01 10:25:10;;;;;;;5.18;2.38;;;21.60;73.20;;;;;;5055605;28;20053;-78
2023/05/01 10:27:40;;;;;;;5.00;2.58;;;21.50;71.00;;;;;;5054518;28;20049;-76
2023/05/01 10:30:07;;;;;;;6.20;3.80;;;21.40;70.90;;;;;;5055966;28;20103;-77
2023/05/01 10:32:36;;;;;;;8.57;3.70;;;21.30;73.00;;;;;;5055769;28;20045;-78
2023/05/01 10:35:08;;;;;;;6.93;3.47;;;21.50;74.60;;;;;;5055412;28;20080;-79
2023/05/01 10:37:45;;;;;;;4.83;2.83;;;21.20;74.50;;;;;;5055510;28;20049;-78
2023/05/01 10:40:36;;;;;;;4.28;3.33;;;21.50;74.90;;;;;;5055711;28;20044;-77
2023/05/01 10:43:14;;;;;;;4.18;2.97;;;21.80;73.40;;;;;;5055249;28;20040;-79
2023/05/01 10:45:43;;;;;;;6.57;3.03;;;21.80;74.70;;;;;;5055183;28;20052;-78
2023/05/01 10:48:09;;;;;;;4.68;2.97;;;22.00;76.10;;;;;;5055570;28;20084;-79
2023/05/01 10:50:55;;;;;;;7.25;3.15;;;22.00;76.20;;;;;;5055112;28;20068;-78
2023/05/01 10:53:21;;;;;;;2.80;1.90;;;22.00;75.70;;;;;;5055647;28;20124;-82
2023/05/01 10:55:48;;;;;;;4.45;2.80;;;21.50;74.70;;;;;;5055083;28;20535;-78
2023/05/01 10:58:39;;;;;;;7.13;3.00;;;20.80;71.80;;;;;;5054983;28;20060;-82
2023/05/01 11:01:28;;;;;;;4.50;3.67;;;20.00;74.40;;;;;;5051899;28;20481;-81
2023/05/01 11:03:55;;;;;;;5.28;2.60;;;19.30;74.80;;;;;;5055476;28;20064;-81
2023/05/01 11:06:21;;;;;;;2.97;2.60;;;19.20;77.10;;;;;;5054956;28;20041;-79
2023/05/01 11:08:47;;;;;;;3.70;2.30;;;19.60;77.00;;;;;;5053980;28;20366;-81
2023/05/01 11:11:22;;;;;;;3.95;2.35;;;19.80;77.40;;;;;;5054009;28;20048;-79
2023/05/01 11:13:58;;;;;;;7.28;3.25;;;20.20;76.60;;;;;;5054739;28;20454;-80
2023/05/01 11:16:36;;;;;;;3.92;2.45;;;20.40;76.10;;;;;;5054756;28;20037;-79
2023/05/01 11:19:08;;;;;;;4.80;2.42;;;20.20;73.90;;;;;;5054173;28;20140;-80
2023/05/01 11:21:37;;;;;;;3.67;2.35;;;20.40;76.00;;;;;;5054241;28;20049;-79
2023/05/01 11:24:03;;;;;;;1.75;1.63;;;20.70;76.30;;;;;;5053749;28;20061;-80
2023/05/01 11:26:30;;;;;;;1.88;1.77;;;20.80;75.30;;;;;;5053564;28;20053;-80
2023/05/01 11:29:00;;;;;;;1.63;1.52;;;20.80;73.90;;;;;;5053536;28;20091;-81
2023/05/01 11:31:26;;;;;;;2.03;1.30;;;21.00;73.10;;;;;;5053620;28;20045;-80
2023/05/01 11:33:56;;;;;;;1.35;1.25;;;21.10;74.70;;;;;;5054861;28;20072;-79
2023/05/01 11:36:21;;;;;;;4.05;2.03;;;21.10;72.40;;;;;;5054305;28;20128;-83
2023/05/01 11:38:51;;;;;;;1.98;1.58;;;20.30;68.40;;;;;;5052882;28;20092;-80
2023/05/01 11:41:21;;;;;;;2.83;1.60;;;20.00;70.10;;;;;;5054198;28;20045;-81
2023/05/01 11:43:55;;;;;;;1.75;1.60;;;19.70;69.70;;;;;;5054115;28;20044;-79
2023/05/01 11:46:28;;;;;;;5.25;3.47;;;19.60;71.70;;;;;;5053324;28;20166;-80
2023/05/01 11:48:55;;;;;;;;;;;19.60;74.80;;;;;;5053856;28;20427;-81
2023/05/01 11:51:20;;;;;;;2.83;2.60;;;19.60;75.10;;;;;;5052664;28;19921;-79
2023/05/01 11:54:06;;;;;;;3.88;3.00;;;19.40;74.10;;;;;;5053933;28;20052;-77
2023/05/01 11:56:33;;;;;;;3.00;2.55;;;19.40;77.40;;;;;;5053784;28;20049;-79
2023/05/01 11:59:15;;;;;;;2.67;2.47;;;19.50;75.30;;;;;;5053711;28;20122;-79
2023/05/01 12:01:43;;;;;;;2.60;2.10;;;19.50;72.80;;;;;;5053039;28;20118;-80
2023/05/01 12:04:10;;;;;;;2.10;1.80;;;19.50;75.30;;;;;;5053601;28;20060;-80
2023/05/01 12:06:44;;;;;;;1.60;1.50;;;19.70;75.50;;;;;;5053697;28;20037;-79
2023/05/01 12:09:17;;;;;;;3.05;1.67;;;19.60;74.80;;;;;;5054220;28;20052;-80
2023/05/01 12:11:44;;;;;;;2.53;1.52;;;19.50;74.30;;;;;;5053524;28;20179;-82
2023/05/01 12:14:10;;;;;;;2.00;1.80;;;19.60;75.00;;;;;;5053876;28;20053;-80
2023/05/01 12:16:36;;;;;;;1.70;1.48;;;19.60;76.80;;;;;;5054001;28;20062;-81
2023/05/01 12:19:03;;;;;;;2.45;1.80;;;19.90;76.60;;;;;;5053933;28;20096;-79
2023/05/01 12:21:30;;;;;;;3.33;1.73;;;19.60;73.80;;;;;;5053490;28;20534;-82
2023/05/01 12:24:09;;;;;;;5.07;1.77;;;19.70;76.70;;;;;;5053807;28;20052;-79
2023/05/01 12:26:36;;;;;;;2.65;1.67;;;20.10;76.50;;;;;;5053837;28;20045;-80
2023/05/01 12:29:04;;;;;;;1.90;1.30;;;20.20;77.10;;;;;;5053019;28;20052;-81
2023/05/01 12:31:30;;;;;;;3.00;1.60;;;20.40;76.50;;;;;;5053495;28;20092;-80
2023/05/01 12:33:57;;;;;;;3.03;1.80;;;20.30;76.20;;;;;;5053097;28;20044;-78
2023/05/01 12:36:24;;;;;;;6.45;1.90;;;19.70;75.80;;;;;;5053448;28;20053;-81
2023/05/01 12:39:04;;;;;;;3.83;1.90;;;19.10;76.10;;;;;;5053368;28;20055;-80
2023/05/01 12:41:34;;;;;;;2.20;1.80;;;19.20;79.10;;;;;;5052447;28;20063;-81
2023/05/01 12:44:00;;;;;;;3.08;2.03;;;19.20;79.10;;;;;;5052311;28;20048;-79
2023/05/01 12:46:26;;;;;;;3.08;2.10;;;19.20;79.40;;;;;;5053215;28;20462;-81
2023/05/01 12:48:53;;;;;;;2.97;2.38;;;19.10;79.50;;;;;;5051964;28;20057;-79
2023/05/01 12:51:19;;;;;;;3.53;2.30;;;18.90;78.70;;;;;;5053040;28;20131;-81
2023/05/01 12:53:46;;;;;;;2.97;1.98;;;18.90;79.00;;;;;;5053486;28;20036;-83
2023/05/01 12:56:23;;;;;;;5.05;2.00;;;19.10;81.10;;;;;;5053099;28;20064;-82